sensor_id;sensor_type;location;lat;lon;timestamp;P1;P2;P0
29460;PMS7003;16428;47.836;35.106;2023-05-14T00:01:03;43.00;32.75;23.50
29460;PMS7003;16428;47.836;35.106;2023-05-14T00:03:31;33.00;32.00;23.75
29460;PMS7003;16428;47.836;35.106;2023-05-14T00:05:58;43.75;33.75;23.50
29460;PMS7003;16428;47.836;35.106;2023-05-14T00:08:26;27.00;25.25;16.00
29460;PMS7003;16428;47.836;35.106;2023-05-14T00:10:53;35.50;32.25;23.75
29460;PMS7003;16428;47.836;35.106;2023-05-14T00:13:21;35.00;33.00;24.00
29460;PMS7003;16428;47.836;35.106;2023-05-14T00:15:49;34.50;30.75;22.75
29460;PMS7003;16428;47.836;35.106;2023-05-14T00:18:16;42.75;36.50;25.00
29460;PMS7003;16428;47.836;35.106;2023-05-14T00:20:44;30.50;26.00;21.75
29460;PMS7003;16428;47.836;35.106;2023-05-14T00:23:11;36.00;31.75;24.50
29460;PMS7003;16428;47.836;35.106;2023-05-14T00:25:39;33.50;31.00;22.50
29460;PMS7003;16428;47.836;35.106;2023-05-14T00:28:06;39.75;32.00;23.00
29460;PMS7003;16428;47.836;35.106;2023-05-14T00:30:34;40.25;34.00;23.50
29460;PMS7003;16428;47.836;35.106;2023-05-14T00:33:02;37.50;32.00;22.00
29460;PMS7003;16428;47.836;35.106;2023-05-14T00:35:29;31.25;28.75;21.00
29460;PMS7003;16428;47.836;35.106;2023-05-14T00:37:57;33.75;29.50;20.25
29460;PMS7003;16428;47.836;35.106;2023-05-14T00:40:25;32.00;29.00;21.75
29460;PMS7003;16428;47.836;35.106;2023-05-14T00:42:53;39.00;31.50;23.75
29460;PMS7003;16428;47.836;35.106;2023-05-14T00:45:22;32.50;30.50;23.00
29460;PMS7003;16428;47.836;35.106;2023-05-14T00:47:49;37.00;30.75;22.75
29460;PMS7003;16428;47.836;35.106;2023-05-14T00:50:17;39.50;32.00;23.25
29460;PMS7003;16428;47.836;35.106;2023-05-14T00:52:46;30.75;27.25;20.00
29460;PMS7003;16428;47.836;35.106;2023-05-14T00:55:13;32.00;28.25;22.50
29460;PMS7003;16428;47.836;35.106;2023-05-14T00:57:42;32.50;31.00;22.50
29460;PMS7003;16428;47.836;35.106;2023-05-14T01:00:10;33.50;29.50;22.50
29460;PMS7003;16428;47.836;35.106;2023-05-14T01:02:38;32.50;29.75;22.00
29460;PMS7003;16428;47.836;35.106;2023-05-14T01:05:06;32.50;27.75;22.25
29460;PMS7003;16428;47.836;35.106;2023-05-14T01:10:36;33.25;29.75;21.00
29460;PMS7003;16428;47.836;35.106;2023-05-14T01:15:36;34.00;29.50;21.00
29460;PMS7003;16428;47.836;35.106;2023-05-14T01:18:08;30.75;28.25;21.00
29460;PMS7003;16428;47.836;35.106;2023-05-14T01:20:37;35.75;31.25;22.50
29460;PMS7003;16428;47.836;35.106;2023-05-14T01:23:04;31.25;31.00;21.25
29460;PMS7003;16428;47.836;35.106;2023-05-14T01:25:33;38.25;30.50;22.50
29460;PMS7003;16428;47.836;35.106;2023-05-14T01:28:12;31.00;29.25;21.75
29460;PMS7003;16428;47.836;35.106;2023-05-14T01:30:52;35.75;27.75;21.50
29460;PMS7003;16428;47.836;35.106;2023-05-14T01:33:25;32.75;31.50;21.00
29460;PMS7003;16428;47.836;35.106;2023-05-14T01:35:55;33.50;31.00;22.50
29460;PMS7003;16428;47.836;35.106;2023-05-14T01:38:24;33.25;29.75;22.25
29460;PMS7003;16428;47.836;35.106;2023-05-14T01:40:56;26.75;22.00;20.75
29460;PMS7003;16428;47.836;35.106;2023-05-14T01:43:26;39.25;33.50;22.25
29460;PMS7003;16428;47.836;35.106;2023-05-14T01:45:53;24.75;21.00;15.25
29460;PMS7003;16428;47.836;35.106;2023-05-14T01:48:21;35.75;27.25;20.25
29460;PMS7003;16428;47.836;35.106;2023-05-14T01:50:49;31.50;31.25;22.00
29460;PMS7003;16428;47.836;35.106;2023-05-14T01:53:17;32.50;29.75;21.00
29460;PMS7003;16428;47.836;35.106;2023-05-14T01:55:44;29.25;27.50;21.75
29460;PMS7003;16428;47.836;35.106;2023-05-14T01:58:11;36.00;30.75;21.75
29460;PMS7003;16428;47.836;35.106;2023-05-14T02:00:39;32.50;29.25;22.25
29460;PMS7003;16428;47.836;35.106;2023-05-14T02:03:06;33.00;28.50;21.00
29460;PMS7003;16428;47.836;35.106;2023-05-14T02:05:34;28.25;28.00;21.00
29460;PMS7003;16428;47.836;35.106;2023-05-14T02:08:01;35.75;28.75;21.00
29460;PMS7003;16428;47.836;35.106;2023-05-14T02:10:29;32.00;31.50;22.00
29460;PMS7003;16428;47.836;35.106;2023-05-14T02:12:57;35.25;31.25;23.00
29460;PMS7003;16428;47.836;35.106;2023-05-14T02:15:24;44.25;36.25;25.25
29460;PMS7003;16428;47.836;35.106;2023-05-14T02:17:52;42.75;34.00;23.25
29460;PMS7003;16428;47.836;35.106;2023-05-14T02:20:19;32.50;30.75;21.00
29460;PMS7003;16428;47.836;35.106;2023-05-14T02:22:47;38.25;32.25;23.00
29460;PMS7003;16428;47.836;35.106;2023-05-14T02:25:14;41.00;36.25;24.50
29460;PMS7003;16428;47.836;35.106;2023-05-14T02:27:42;45.50;36.75;25.75
29460;PMS7003;16428;47.836;35.106;2023-05-14T02:30:10;40.50;35.00;25.25
29460;PMS7003;16428;47.836;35.106;2023-05-14T02:32:38;41.75;34.50;24.50
29460;PMS7003;16428;47.836;35.106;2023-05-14T02:35:06;28.00;26.25;22.00
29460;PMS7003;16428;47.836;35.106;2023-05-14T02:37:34;33.00;30.50;22.50
29460;PMS7003;16428;47.836;35.106;2023-05-14T02:40:02;33.25;29.00;22.25
29460;PMS7003;16428;47.836;35.106;2023-05-14T02:42:30;40.00;33.25;24.00
29460;PMS7003;16428;47.836;35.106;2023-05-14T02:44:58;40.75;33.75;23.50
29460;PMS7003;16428;47.836;35.106;2023-05-14T02:47:25;31.75;31.50;22.25
29460;PMS7003;16428;47.836;35.106;2023-05-14T02:49:53;40.00;32.75;22.75
29460;PMS7003;16428;47.836;35.106;2023-05-14T02:52:21;37.00;34.50;23.75
29460;PMS7003;16428;47.836;35.106;2023-05-14T02:54:48;37.75;34.50;24.00
29460;PMS7003;16428;47.836;35.106;2023-05-14T02:57:16;35.25;32.75;22.75
29460;PMS7003;16428;47.836;35.106;2023-05-14T02:59:43;33.25;32.00;23.00
29460;PMS7003;16428;47.836;35.106;2023-05-14T03:02:12;29.25;28.00;21.00
29460;PMS7003;16428;47.836;35.106;2023-05-14T03:04:40;35.00;32.00;22.75
29460;PMS7003;16428;47.836;35.106;2023-05-14T03:07:08;34.75;32.00;22.50
29460;PMS7003;16428;47.836;35.106;2023-05-14T03:09:35;48.50;34.50;21.25
29460;PMS7003;16428;47.836;35.106;2023-05-14T03:12:04;40.25;34.25;25.00
29460;PMS7003;16428;47.836;35.106;2023-05-14T03:14:32;29.75;29.50;21.00
29460;PMS7003;16428;47.836;35.106;2023-05-14T03:17:00;39.75;35.00;24.00
29460;PMS7003;16428;47.836;35.106;2023-05-14T03:19:28;33.25;30.50;21.50
29460;PMS7003;16428;47.836;35.106;2023-05-14T03:21:55;37.75;32.25;23.00
29460;PMS7003;16428;47.836;35.106;2023-05-14T03:24:23;36.75;33.75;24.00
29460;PMS7003;16428;47.836;35.106;2023-05-14T03:26:51;28.00;26.50;20.00
29460;PMS7003;16428;47.836;35.106;2023-05-14T03:29:19;34.75;31.25;23.25
29460;PMS7003;16428;47.836;35.106;2023-05-14T03:31:46;36.25;31.00;23.00
29460;PMS7003;16428;47.836;35.106;2023-05-14T03:34:14;35.50;32.25;24.00
29460;PMS7003;16428;47.836;35.106;2023-05-14T03:36:41;36.50;32.50;23.25
29460;PMS7003;16428;47.836;35.106;2023-05-14T03:39:09;33.75;31.50;23.25
29460;PMS7003;16428;47.836;35.106;2023-05-14T03:41:36;32.25;27.75;20.00
29460;PMS7003;16428;47.836;35.106;2023-05-14T03:44:04;31.00;29.75;22.75
29460;PMS7003;16428;47.836;35.106;2023-05-14T03:46:32;41.25;32.50;23.50
29460;PMS7003;16428;47.836;35.106;2023-05-14T03:48:59;37.50;32.00;24.00
29460;PMS7003;16428;47.836;35.106;2023-05-14T03:51:27;32.25;31.25;23.50
29460;PMS7003;16428;47.836;35.106;2023-05-14T03:53:55;29.00;25.50;17.75
29460;PMS7003;16428;47.836;35.106;2023-05-14T03:56:24;36.50;32.50;22.25
29460;PMS7003;16428;47.836;35.106;2023-05-14T03:58:52;28.75;28.25;19.25
29460;PMS7003;16428;47.836;35.106;2023-05-14T04:06:24;51.00;42.25;28.50
29460;PMS7003;16428;47.836;35.106;2023-05-14T04:08:51;50.25;40.00;28.25
29460;PMS7003;16428;47.836;35.106;2023-05-14T04:11:19;36.50;33.75;23.00
29460;PMS7003;16428;47.836;35.106;2023-05-14T04:13:47;45.00;34.75;24.50
29460;PMS7003;16428;47.836;35.106;2023-05-14T04:16:14;29.00;24.75;21.00
29460;PMS7003;16428;47.836;35.106;2023-05-14T04:18:43;35.25;31.00;22.25
29460;PMS7003;16428;47.836;35.106;2023-05-14T04:21:11;28.50;27.50;21.25
29460;PMS7003;16428;47.836;35.106;2023-05-14T04:23:39;22.75;20.75;15.50
29460;PMS7003;16428;47.836;35.106;2023-05-14T04:26:06;33.00;30.00;21.25
29460;PMS7003;16428;47.836;35.106;2023-05-14T04:28:34;37.75;33.25;23.00
29460;PMS7003;16428;47.836;35.106;2023-05-14T04:31:02;25.25;25.25;20.00
29460;PMS7003;16428;47.836;35.106;2023-05-14T04:33:29;22.50;21.75;17.75
29460;PMS7003;16428;47.836;35.106;2023-05-14T04:35:57;28.50;28.25;20.25
29460;PMS7003;16428;47.836;35.106;2023-05-14T04:38:24;32.25;31.25;21.00
29460;PMS7003;16428;47.836;35.106;2023-05-14T04:40:52;32.00;29.75;22.00
29460;PMS7003;16428;47.836;35.106;2023-05-14T04:43:20;35.33;31.33;22.00
29460;PMS7003;16428;47.836;35.106;2023-05-14T04:45:47;29.33;28.67;20.33
29460;PMS7003;16428;47.836;35.106;2023-05-14T04:48:15;29.00;27.33;21.33
29460;PMS7003;16428;47.836;35.106;2023-05-14T04:50:43;31.33;29.00;21.00
29460;PMS7003;16428;47.836;35.106;2023-05-14T04:53:10;28.33;26.67;21.67
29460;PMS7003;16428;47.836;35.106;2023-05-14T04:55:38;32.67;28.67;21.67
29460;PMS7003;16428;47.836;35.106;2023-05-14T04:58:05;30.67;28.67;20.33
29460;PMS7003;16428;47.836;35.106;2023-05-14T05:00:33;30.33;28.00;21.00
29460;PMS7003;16428;47.836;35.106;2023-05-14T05:03:00;29.00;27.00;20.33
29460;PMS7003;16428;47.836;35.106;2023-05-14T05:05:30;24.00;24.00;19.67
29460;PMS7003;16428;47.836;35.106;2023-05-14T05:07:58;30.33;30.33;22.00
29460;PMS7003;16428;47.836;35.106;2023-05-14T05:10:25;32.33;30.67;22.00
29460;PMS7003;16428;47.836;35.106;2023-05-14T05:12:53;30.00;28.33;20.67
29460;PMS7003;16428;47.836;35.106;2023-05-14T05:15:20;24.00;24.00;19.33
29460;PMS7003;16428;47.836;35.106;2023-05-14T05:17:47;32.75;29.00;19.75
29460;PMS7003;16428;47.836;35.106;2023-05-14T05:20:15;31.00;25.75;17.00
29460;PMS7003;16428;47.836;35.106;2023-05-14T05:22:42;12.75;7.00;2.25
29460;PMS7003;16428;47.836;35.106;2023-05-14T05:25:10;28.00;22.25;17.75
29460;PMS7003;16428;47.836;35.106;2023-05-14T05:27:38;36.33;31.00;21.67
29460;PMS7003;16428;47.836;35.106;2023-05-14T05:30:06;36.50;32.75;22.75
29460;PMS7003;16428;47.836;35.106;2023-05-14T05:32:36;34.33;32.33;23.33
29460;PMS7003;16428;47.836;35.106;2023-05-14T05:35:04;21.50;21.50;15.75
29460;PMS7003;16428;47.836;35.106;2023-05-14T05:37:31;22.75;22.75;18.25
29460;PMS7003;16428;47.836;35.106;2023-05-14T05:39:59;22.25;20.25;16.25
29460;PMS7003;16428;47.836;35.106;2023-05-14T05:42:26;19.75;19.75;17.50
29460;PMS7003;16428;47.836;35.106;2023-05-14T05:44:54;25.25;25.25;17.75
29460;PMS7003;16428;47.836;35.106;2023-05-14T05:47:22;26.50;21.50;16.75
29460;PMS7003;16428;47.836;35.106;2023-05-14T05:49:49;27.00;25.25;20.00
29460;PMS7003;16428;47.836;35.106;2023-05-14T05:52:17;21.00;19.25;16.00
29460;PMS7003;16428;47.836;35.106;2023-05-14T05:54:44;23.25;19.25;15.50
29460;PMS7003;16428;47.836;35.106;2023-05-14T05:57:11;23.25;22.00;17.00
29460;PMS7003;16428;47.836;35.106;2023-05-14T05:59:39;20.50;17.50;16.25
29460;PMS7003;16428;47.836;35.106;2023-05-14T06:02:06;20.75;18.50;14.75
29460;PMS7003;16428;47.836;35.106;2023-05-14T06:04:34;19.67;16.33;13.67
29460;PMS7003;16428;47.836;35.106;2023-05-14T06:07:02;24.50;22.25;17.25
29460;PMS7003;16428;47.836;35.106;2023-05-14T06:09:29;19.75;18.50;15.00
29460;PMS7003;16428;47.836;35.106;2023-05-14T06:11:57;18.50;18.25;15.25
29460;PMS7003;16428;47.836;35.106;2023-05-14T06:14:24;21.25;19.50;15.25
29460;PMS7003;16428;47.836;35.106;2023-05-14T06:16:52;16.25;16.25;13.75
29460;PMS7003;16428;47.836;35.106;2023-05-14T06:19:19;24.25;21.25;16.25
29460;PMS7003;16428;47.836;35.106;2023-05-14T06:21:47;17.50;17.50;13.25
29460;PMS7003;16428;47.836;35.106;2023-05-14T06:24:15;19.50;18.00;14.25
29460;PMS7003;16428;47.836;35.106;2023-05-14T06:26:42;18.00;18.00;13.75
29460;PMS7003;16428;47.836;35.106;2023-05-14T06:29:10;17.50;16.00;13.50
29460;PMS7003;16428;47.836;35.106;2023-05-14T06:31:37;16.75;16.75;13.50
29460;PMS7003;16428;47.836;35.106;2023-05-14T06:34:05;20.00;16.00;12.00
29460;PMS7003;16428;47.836;35.106;2023-05-14T06:36:32;15.00;13.75;11.25
29460;PMS7003;16428;47.836;35.106;2023-05-14T06:38:59;17.75;15.00;13.00
29460;PMS7003;16428;47.836;35.106;2023-05-14T06:41:27;19.25;16.00;13.75
29460;PMS7003;16428;47.836;35.106;2023-05-14T06:43:55;18.50;15.75;13.00
29460;PMS7003;16428;47.836;35.106;2023-05-14T06:46:22;12.50;12.50;9.75
29460;PMS7003;16428;47.836;35.106;2023-05-14T06:48:50;19.25;16.00;12.00
29460;PMS7003;16428;47.836;35.106;2023-05-14T06:51:17;14.75;14.75;13.50
29460;PMS7003;16428;47.836;35.106;2023-05-14T06:53:45;16.75;16.75;14.75
29460;PMS7003;16428;47.836;35.106;2023-05-14T06:56:14;11.25;10.25;6.75
29460;PMS7003;16428;47.836;35.106;2023-05-14T06:58:42;12.40;12.40;9.40
29460;PMS7003;16428;47.836;35.106;2023-05-14T07:01:09;12.80;11.40;9.80
29460;PMS7003;16428;47.836;35.106;2023-05-14T07:03:37;11.20;9.40;8.00
29460;PMS7003;16428;47.836;35.106;2023-05-14T07:06:05;8.80;8.80;7.80
29460;PMS7003;16428;47.836;35.106;2023-05-14T07:08:34;6.40;5.80;4.80
29460;PMS7003;16428;47.836;35.106;2023-05-14T07:11:02;12.40;10.60;9.00
29460;PMS7003;16428;47.836;35.106;2023-05-14T07:13:29;11.20;7.40;5.00
29460;PMS7003;16428;47.836;35.106;2023-05-14T07:15:56;10.60;9.40;8.80
29460;PMS7003;16428;47.836;35.106;2023-05-14T07:18:24;7.60;7.00;5.80
29460;PMS7003;16428;47.836;35.106;2023-05-14T07:20:52;11.20;10.20;9.80
29460;PMS7003;16428;47.836;35.106;2023-05-14T07:23:19;9.60;9.60;8.60
29460;PMS7003;16428;47.836;35.106;2023-05-14T07:25:47;10.40;10.40;9.40
29460;PMS7003;16428;47.836;35.106;2023-05-14T07:28:15;7.00;7.00;6.00
29460;PMS7003;16428;47.836;35.106;2023-05-14T07:30:43;8.00;8.00;7.00
29460;PMS7003;16428;47.836;35.106;2023-05-14T07:33:11;8.20;6.80;5.40
29460;PMS7003;16428;47.836;35.106;2023-05-14T07:35:38;6.60;6.60;6.20
29460;PMS7003;16428;47.836;35.106;2023-05-14T07:38:05;7.00;5.00;4.60
29460;PMS7003;16428;47.836;35.106;2023-05-14T07:40:33;8.00;8.00;6.40
29460;PMS7003;16428;47.836;35.106;2023-05-14T07:43:00;5.40;5.00;4.20
29460;PMS7003;16428;47.836;35.106;2023-05-14T07:45:28;6.20;6.20;5.20
29460;PMS7003;16428;47.836;35.106;2023-05-14T07:47:55;4.80;4.80;4.40
29460;PMS7003;16428;47.836;35.106;2023-05-14T07:50:23;5.20;4.80;3.80
29460;PMS7003;16428;47.836;35.106;2023-05-14T07:52:51;4.20;4.20;4.00
29460;PMS7003;16428;47.836;35.106;2023-05-14T07:55:18;6.60;6.60;5.00
29460;PMS7003;16428;47.836;35.106;2023-05-14T07:57:46;5.60;5.60;5.00
29460;PMS7003;16428;47.836;35.106;2023-05-14T08:00:13;5.20;5.20;4.80
29460;PMS7003;16428;47.836;35.106;2023-05-14T08:02:43;4.80;4.80;3.80
29460;PMS7003;16428;47.836;35.106;2023-05-14T08:05:10;5.00;5.00;4.80
29460;PMS7003;16428;47.836;35.106;2023-05-14T08:07:40;6.80;6.00;4.40
29460;PMS7003;16428;47.836;35.106;2023-05-14T08:10:07;6.00;5.20;4.40
29460;PMS7003;16428;47.836;35.106;2023-05-14T08:12:35;10.00;4.60;3.60
29460;PMS7003;16428;47.836;35.106;2023-05-14T08:15:03;5.80;5.80;5.00
29460;PMS7003;16428;47.836;35.106;2023-05-14T08:17:34;5.60;5.60;5.20
29460;PMS7003;16428;47.836;35.106;2023-05-14T08:20:01;4.00;4.00;3.00
29460;PMS7003;16428;47.836;35.106;2023-05-14T08:22:29;4.80;4.80;3.80
29460;PMS7003;16428;47.836;35.106;2023-05-14T08:24:56;6.20;4.20;3.60
29460;PMS7003;16428;47.836;35.106;2023-05-14T08:27:24;6.40;6.40;6.00
29460;PMS7003;16428;47.836;35.106;2023-05-14T08:29:52;3.20;3.20;2.80
29460;PMS7003;16428;47.836;35.106;2023-05-14T08:32:19;5.00;5.00;4.40
29460;PMS7003;16428;47.836;35.106;2023-05-14T08:34:50;5.60;5.60;4.80
29460;PMS7003;16428;47.836;35.106;2023-05-14T08:37:18;4.40;4.40;4.00
29460;PMS7003;16428;47.836;35.106;2023-05-14T08:39:45;7.00;7.00;6.20
29460;PMS7003;16428;47.836;35.106;2023-05-14T08:42:13;4.00;4.00;3.60
29460;PMS7003;16428;47.836;35.106;2023-05-14T08:44:47;4.80;4.80;3.80
29460;PMS7003;16428;47.836;35.106;2023-05-14T08:47:20;10.80;9.40;7.40
29460;PMS7003;16428;47.836;35.106;2023-05-14T08:52:31;8.00;8.00;6.20
29460;PMS7003;16428;47.836;35.106;2023-05-14T08:55:00;8.00;8.00;6.00
29460;PMS7003;16428;47.836;35.106;2023-05-14T08:57:31;4.00;4.00;3.40
29460;PMS7003;16428;47.836;35.106;2023-05-14T08:59:59;5.60;5.20;3.20
29460;PMS7003;16428;47.836;35.106;2023-05-14T09:02:29;6.20;6.20;6.00
29460;PMS7003;16428;47.836;35.106;2023-05-14T09:04:58;5.40;5.40;5.00
29460;PMS7003;16428;47.836;35.106;2023-05-14T09:07:27;4.80;4.80;4.00
29460;PMS7003;16428;47.836;35.106;2023-05-14T09:09:54;6.00;5.80;4.60
29460;PMS7003;16428;47.836;35.106;2023-05-14T09:12:22;4.60;4.60;3.80
29460;PMS7003;16428;47.836;35.106;2023-05-14T09:14:49;6.20;6.20;5.00
29460;PMS7003;16428;47.836;35.106;2023-05-14T09:17:17;4.80;4.80;4.40
29460;PMS7003;16428;47.836;35.106;2023-05-14T09:19:45;6.20;4.00;3.20
29460;PMS7003;16428;47.836;35.106;2023-05-14T09:22:16;5.40;5.40;4.40
29460;PMS7003;16428;47.836;35.106;2023-05-14T09:24:44;7.60;6.00;4.60
29460;PMS7003;16428;47.836;35.106;2023-05-14T09:27:18;4.20;4.20;4.00
29460;PMS7003;16428;47.836;35.106;2023-05-14T09:29:48;3.40;3.40;3.40
29460;PMS7003;16428;47.836;35.106;2023-05-14T09:32:16;7.00;4.80;4.40
29460;PMS7003;16428;47.836;35.106;2023-05-14T09:34:44;6.00;6.00;4.20
29460;PMS7003;16428;47.836;35.106;2023-05-14T09:37:11;5.00;5.00;4.00
29460;PMS7003;16428;47.836;35.106;2023-05-14T09:39:38;4.40;4.40;4.00
29460;PMS7003;16428;47.836;35.106;2023-05-14T09:42:06;5.00;5.00;4.00
29460;PMS7003;16428;47.836;35.106;2023-05-14T09:44:34;3.20;3.20;2.40
29460;PMS7003;16428;47.836;35.106;2023-05-14T09:47:04;6.00;5.00;4.00
29460;PMS7003;16428;47.836;35.106;2023-05-14T09:49:32;10.00;10.00;9.00
29460;PMS7003;16428;47.836;35.106;2023-05-14T09:52:00;4.80;4.80;3.60
29460;PMS7003;16428;47.836;35.106;2023-05-14T09:54:29;6.20;4.00;4.00
29460;PMS7003;16428;47.836;35.106;2023-05-14T09:56:59;5.00;5.00;4.80
29460;PMS7003;16428;47.836;35.106;2023-05-14T09:59:26;8.20;7.40;6.00
29460;PMS7003;16428;47.836;35.106;2023-05-14T10:01:53;5.00;5.00;4.00
29460;PMS7003;16428;47.836;35.106;2023-05-14T10:04:22;5.40;5.40;5.20
29460;PMS7003;16428;47.836;35.106;2023-05-14T10:06:50;3.80;3.80;3.20
29460;PMS7003;16428;47.836;35.106;2023-05-14T10:09:20;5.60;5.60;5.00
29460;PMS7003;16428;47.836;35.106;2023-05-14T10:11:52;8.20;7.80;6.00
29460;PMS7003;16428;47.836;35.106;2023-05-14T10:14:26;8.40;7.40;6.00
29460;PMS7003;16428;47.836;35.106;2023-05-14T10:16:58;6.20;6.20;5.80
29460;PMS7003;16428;47.836;35.106;2023-05-14T10:19:28;7.00;6.00;5.00
29460;PMS7003;16428;47.836;35.106;2023-05-14T10:22:04;8.40;6.40;5.40
29460;PMS7003;16428;47.836;35.106;2023-05-14T10:24:35;6.80;6.80;5.80
29460;PMS7003;16428;47.836;35.106;2023-05-14T10:27:04;8.60;8.60;7.20
29460;PMS7003;16428;47.836;35.106;2023-05-14T10:29:33;7.60;7.60;5.80
29460;PMS7003;16428;47.836;35.106;2023-05-14T10:32:05;5.00;5.00;4.40
29460;PMS7003;16428;47.836;35.106;2023-05-14T10:34:42;8.40;6.20;6.20
29460;PMS7003;16428;47.836;35.106;2023-05-14T10:37:22;8.20;7.60;6.80
29460;PMS7003;16428;47.836;35.106;2023-05-14T10:39:56;7.40;7.40;6.80
29460;PMS7003;16428;47.836;35.106;2023-05-14T10:42:34;6.20;6.20;5.00
29460;PMS7003;16428;47.836;35.106;2023-05-14T10:45:07;6.40;6.00;5.20
29460;PMS7003;16428;47.836;35.106;2023-05-14T10:47:43;0.00;0.00;0.00
29460;PMS7003;16428;47.836;35.106;2023-05-14T10:50:15;6.40;6.40;5.00
29460;PMS7003;16428;47.836;35.106;2023-05-14T10:52:44;3.20;3.20;3.00
29460;PMS7003;16428;47.836;35.106;2023-05-14T10:55:12;4.80;4.80;4.20
29460;PMS7003;16428;47.836;35.106;2023-05-14T10:57:42;7.40;5.20;5.00
29460;PMS7003;16428;47.836;35.106;2023-05-14T11:00:12;5.60;5.60;4.40
29460;PMS7003;16428;47.836;35.106;2023-05-14T11:02:42;5.40;4.80;4.40
29460;PMS7003;16428;47.836;35.106;2023-05-14T11:05:12;5.60;5.60;4.00
29460;PMS7003;16428;47.836;35.106;2023-05-14T11:07:45;5.20;5.20;5.00
29460;PMS7003;16428;47.836;35.106;2023-05-14T11:10:15;4.80;4.00;3.00
29460;PMS7003;16428;47.836;35.106;2023-05-14T11:12:45;4.60;4.60;4.00
29460;PMS7003;16428;47.836;35.106;2023-05-14T11:15:15;7.60;7.60;7.00
29460;PMS7003;16428;47.836;35.106;2023-05-14T11:17:45;6.00;6.00;4.80
29460;PMS7003;16428;47.836;35.106;2023-05-14T11:20:13;9.20;7.00;6.40
29460;PMS7003;16428;47.836;35.106;2023-05-14T11:22:43;4.40;4.40;3.80
29460;PMS7003;16428;47.836;35.106;2023-05-14T11:25:11;6.00;6.00;5.00
29460;PMS7003;16428;47.836;35.106;2023-05-14T11:27:44;4.60;4.60;3.60
29460;PMS7003;16428;47.836;35.106;2023-05-14T11:30:17;4.00;4.00;4.00
29460;PMS7003;16428;47.836;35.106;2023-05-14T11:32:46;4.40;4.40;4.20
29460;PMS7003;16428;47.836;35.106;2023-05-14T11:35:15;7.40;5.80;5.40
29460;PMS7003;16428;47.836;35.106;2023-05-14T11:37:52;4.80;4.80;3.80
29460;PMS7003;16428;47.836;35.106;2023-05-14T11:40:19;3.40;3.40;3.40
29460;PMS7003;16428;47.836;35.106;2023-05-14T11:42:50;4.00;4.00;3.80
29460;PMS7003;16428;47.836;35.106;2023-05-14T11:45:25;8.00;6.00;6.00
29460;PMS7003;16428;47.836;35.106;2023-05-14T11:47:53;3.00;3.00;3.00
29460;PMS7003;16428;47.836;35.106;2023-05-14T11:50:21;5.20;5.20;4.80
29460;PMS7003;16428;47.836;35.106;2023-05-14T11:52:49;4.60;4.60;4.20
29460;PMS7003;16428;47.836;35.106;2023-05-14T11:55:17;3.00;2.00;1.80
29460;PMS7003;16428;47.836;35.106;2023-05-14T11:57:44;7.40;6.60;5.40
29460;PMS7003;16428;47.836;35.106;2023-05-14T12:00:12;4.80;4.80;4.60
29460;PMS7003;16428;47.836;35.106;2023-05-14T12:02:42;4.60;4.60;4.00
29460;PMS7003;16428;47.836;35.106;2023-05-14T12:05:11;5.00;5.00;5.00
29460;PMS7003;16428;47.836;35.106;2023-05-14T12:07:39;6.40;6.40;5.60
29460;PMS7003;16428;47.836;35.106;2023-05-14T12:10:11;4.40;4.40;3.00
29460;PMS7003;16428;47.836;35.106;2023-05-14T12:12:39;5.60;4.40;3.60
29460;PMS7003;16428;47.836;35.106;2023-05-14T12:15:13;9.40;6.60;5.20
29460;PMS7003;16428;47.836;35.106;2023-05-14T12:17:42;6.00;6.00;4.60
29460;PMS7003;16428;47.836;35.106;2023-05-14T12:20:16;5.60;5.60;5.20
29460;PMS7003;16428;47.836;35.106;2023-05-14T12:22:44;8.00;5.60;5.00
29460;PMS7003;16428;47.836;35.106;2023-05-14T12:25:11;4.00;4.00;4.00
29460;PMS7003;16428;47.836;35.106;2023-05-14T12:27:40;5.80;4.80;3.80
29460;PMS7003;16428;47.836;35.106;2023-05-14T12:30:11;6.60;6.60;5.60
29460;PMS7003;16428;47.836;35.106;2023-05-14T12:32:48;4.60;3.60;3.00
29460;PMS7003;16428;47.836;35.106;2023-05-14T12:35:19;5.40;4.80;4.20
29460;PMS7003;16428;47.836;35.106;2023-05-14T12:37:48;5.00;5.00;4.20
29460;PMS7003;16428;47.836;35.106;2023-05-14T12:40:16;7.80;5.60;5.40
29460;PMS7003;16428;47.836;35.106;2023-05-14T12:42:44;4.40;4.40;3.60
29460;PMS7003;16428;47.836;35.106;2023-05-14T12:45:11;4.40;4.40;4.20
29460;PMS7003;16428;47.836;35.106;2023-05-14T12:47:39;6.20;6.20;4.60
29460;PMS7003;16428;47.836;35.106;2023-05-14T12:50:07;9.00;4.00;4.00
29460;PMS7003;16428;47.836;35.106;2023-05-14T12:52:35;4.20;4.20;3.00
29460;PMS7003;16428;47.836;35.106;2023-05-14T12:55:08;3.00;3.00;2.80
29460;PMS7003;16428;47.836;35.106;2023-05-14T12:57:36;7.80;6.40;5.60
29460;PMS7003;16428;47.836;35.106;2023-05-14T13:00:06;4.80;4.80;3.80
29460;PMS7003;16428;47.836;35.106;2023-05-14T13:02:37;5.00;5.00;5.00
29460;PMS7003;16428;47.836;35.106;2023-05-14T13:05:10;8.80;4.80;4.00
29460;PMS7003;16428;47.836;35.106;2023-05-14T13:07:38;4.00;4.00;3.20
29460;PMS7003;16428;47.836;35.106;2023-05-14T13:10:05;7.00;5.60;5.00
29460;PMS7003;16428;47.836;35.106;2023-05-14T13:12:34;6.60;5.80;5.00
29460;PMS7003;16428;47.836;35.106;2023-05-14T13:15:02;6.40;4.40;4.40
29460;PMS7003;16428;47.836;35.106;2023-05-14T13:17:29;6.60;6.60;6.00
29460;PMS7003;16428;47.836;35.106;2023-05-14T13:19:57;5.80;5.80;5.40
29460;PMS7003;16428;47.836;35.106;2023-05-14T13:22:24;3.80;3.80;3.20
29460;PMS7003;16428;47.836;35.106;2023-05-14T13:24:52;4.60;4.60;4.00
29460;PMS7003;16428;47.836;35.106;2023-05-14T13:27:19;4.20;4.20;4.00
29460;PMS7003;16428;47.836;35.106;2023-05-14T13:29:47;6.60;4.20;4.00
29460;PMS7003;16428;47.836;35.106;2023-05-14T13:36:04;4.60;4.60;4.00
29460;PMS7003;16428;47.836;35.106;2023-05-14T13:38:32;5.40;3.40;3.20
29460;PMS7003;16428;47.836;35.106;2023-05-14T13:41:00;4.80;4.80;4.20
29460;PMS7003;16428;47.836;35.106;2023-05-14T13:43:32;2.40;2.40;2.00
29460;PMS7003;16428;47.836;35.106;2023-05-14T13:46:01;4.40;3.60;3.40
29460;PMS7003;16428;47.836;35.106;2023-05-14T13:48:30;6.00;6.00;5.40
29460;PMS7003;16428;47.836;35.106;2023-05-14T13:50:57;9.80;6.80;6.00
29460;PMS7003;16428;47.836;35.106;2023-05-14T13:53:25;7.00;7.00;6.00
29460;PMS7003;16428;47.836;35.106;2023-05-14T13:55:53;6.40;6.40;5.40
29460;PMS7003;16428;47.836;35.106;2023-05-14T13:58:24;7.00;7.00;7.00
29460;PMS7003;16428;47.836;35.106;2023-05-14T14:00:52;6.40;6.40;6.00
29460;PMS7003;16428;47.836;35.106;2023-05-14T14:03:20;7.00;7.00;6.00
29460;PMS7003;16428;47.836;35.106;2023-05-14T14:05:47;7.40;7.00;6.00
29460;PMS7003;16428;47.836;35.106;2023-05-14T14:08:16;7.40;7.40;6.40
29460;PMS7003;16428;47.836;35.106;2023-05-14T14:10:51;5.40;5.00;4.40
29460;PMS7003;16428;47.836;35.106;2023-05-14T14:13:20;5.60;5.60;4.80
29460;PMS7003;16428;47.836;35.106;2023-05-14T14:15:49;6.80;6.80;6.20